createdAt,value
2023-04-29T00:00:20.900Z,79.31
2023-04-29T00:03:23.576Z,79.58
2023-04-29T00:06:28.145Z,79.80
2023-04-29T00:09:30.665Z,78.89
2023-04-29T00:12:33.442Z,79.17
2023-04-29T00:15:37.426Z,79.18
2023-04-29T00:18:39.947Z,78.89
2023-04-29T00:21:43.851Z,79.16
2023-04-29T00:24:46.369Z,78.49
2023-04-29T00:27:48.897Z,78.84
2023-04-29T00:30:51.697Z,79.40
2023-04-29T00:33:54.299Z,78.81
2023-04-29T00:36:58.208Z,78.86
2023-04-29T00:40:00.774Z,78.76
2023-04-29T00:43:03.370Z,78.88
2023-04-29T00:46:06.045Z,78.42
2023-04-29T00:49:08.582Z,78.94
2023-04-29T00:52:12.752Z,78.72
2023-04-29T00:55:15.340Z,79.19
2023-04-29T00:58:18.417Z,78.50
2023-04-29T01:01:21.771Z,79.08
2023-04-29T01:04:24.391Z,78.83
2023-04-29T01:07:31.457Z,79.19
2023-04-29T01:10:36.824Z,79.02
2023-04-29T01:13:43.761Z,78.57
2023-04-29T01:16:49.587Z,78.84
2023-04-29T01:19:55.082Z,79.35
2023-04-29T01:22:58.999Z,78.68
2023-04-29T01:26:02.842Z,78.97
2023-04-29T01:29:11.745Z,79.34
2023-04-29T01:32:15.888Z,79.34
2023-04-29T01:35:26.648Z,78.68
2023-04-29T01:38:34.076Z,79.23
2023-04-29T01:41:40.502Z,78.52
2023-04-29T01:44:43.087Z,78.75
2023-04-29T01:47:46.221Z,78.77
2023-04-29T01:50:48.839Z,78.71
2023-04-29T01:53:51.603Z,79.06
2023-04-29T01:56:55.484Z,79.20
2023-04-29T01:59:58.159Z,79.64
2023-04-29T02:03:00.874Z,78.76
2023-04-29T02:06:04.352Z,79.24
2023-04-29T02:09:06.975Z,79.30
2023-04-29T02:12:10.900Z,79.55
2023-04-29T02:15:13.504Z,79.04
2023-04-29T02:18:16.069Z,79.36
2023-04-29T02:21:18.585Z,79.43
2023-04-29T02:24:21.088Z,79.53
2023-04-29T02:27:25.032Z,79.33
2023-04-29T02:30:27.626Z,79.56
2023-04-29T02:33:30.220Z,79.52
2023-04-29T02:36:32.777Z,79.68
2023-04-29T02:39:35.333Z,79.29
2023-04-29T02:42:39.198Z,79.37
2023-04-29T02:45:41.721Z,78.90
2023-04-29T02:48:44.319Z,78.52
2023-04-29T02:51:49.538Z,79.26
2023-04-29T02:54:52.095Z,78.95
2023-04-29T02:57:55.946Z,78.80
2023-04-29T03:00:58.472Z,78.75
2023-04-29T03:04:01.368Z,78.28
2023-04-29T03:07:04.808Z,78.74
2023-04-29T03:10:08.978Z,78.63
2023-04-29T03:13:12.893Z,79.01
2023-04-29T03:16:16.873Z,78.29
2023-04-29T03:19:19.556Z,78.05
2023-04-29T03:22:22.097Z,78.74
2023-04-29T03:25:24.875Z,78.68
2023-04-29T03:28:28.725Z,78.21
2023-04-29T03:31:31.340Z,78.11
2023-04-29T03:34:34.298Z,78.39
2023-04-29T03:37:37.097Z,78.65
2023-04-29T03:40:39.672Z,78.54
2023-04-29T03:43:44.533Z,78.42
2023-04-29T03:46:47.094Z,78.08
2023-04-29T03:49:49.720Z,77.91
2023-04-29T03:52:52.327Z,78.27
2023-04-29T03:55:54.877Z,78.78
2023-04-29T03:58:58.880Z,78.04
2023-04-29T04:02:01.485Z,78.09
2023-04-29T04:05:04.183Z,78.63
2023-04-29T04:08:06.887Z,78.67
2023-04-29T04:11:09.713Z,78.74
2023-04-29T04:14:13.958Z,78.16
2023-04-29T04:17:16.463Z,77.94
2023-04-29T04:20:19.387Z,78.10
2023-04-29T04:23:21.932Z,78.80
2023-04-29T04:26:24.509Z,78.01
2023-04-29T04:29:28.409Z,78.12
2023-04-29T04:32:31.024Z,78.23
2023-04-29T04:35:33.636Z,78.28
2023-04-29T04:38:36.208Z,79.28
2023-04-29T04:41:39.535Z,78.92
2023-04-29T04:44:43.452Z,79.31
2023-04-29T04:47:46.021Z,79.04
2023-04-29T04:50:48.604Z,79.06
2023-04-29T04:53:51.597Z,78.78
2023-04-29T04:56:54.142Z,79.17
2023-04-29T04:59:58.088Z,79.08
2023-04-29T05:03:00.910Z,79.67
2023-04-29T05:06:03.514Z,79.72
2023-04-29T05:09:06.300Z,80.20
2023-04-29T05:12:08.826Z,80.20
2023-04-29T05:15:14.855Z,80.58
2023-04-29T05:18:17.423Z,80.25
2023-04-29T05:21:19.992Z,80.14
2023-04-29T05:24:22.502Z,80.98
2023-04-29T05:27:25.172Z,80.64
2023-04-29T05:30:29.070Z,80.71
2023-04-29T05:33:31.589Z,80.54
2023-04-29T05:36:34.152Z,80.63
2023-04-29T05:39:36.708Z,81.41
2023-04-29T05:42:39.276Z,81.35
2023-04-29T05:45:43.171Z,81.74
2023-04-29T05:48:46.080Z,80.85
2023-04-29T05:51:48.655Z,81.57
2023-04-29T05:54:51.356Z,81.24
2023-04-29T05:57:53.921Z,81.25
2023-04-29T06:00:59.923Z,81.80
2023-04-29T06:04:02.861Z,81.29
2023-04-29T06:07:05.755Z,81.79
2023-04-29T06:10:09.560Z,81.14
2023-04-29T06:13:12.125Z,81.38
2023-04-29T06:16:16.091Z,81.49
2023-04-29T06:19:19.219Z,81.11
2023-04-29T06:22:21.768Z,81.52
2023-04-29T06:25:24.346Z,80.74
2023-04-29T06:28:27.008Z,80.25
2023-04-29T06:31:30.977Z,80.70
2023-04-29T06:34:33.737Z,80.26
2023-04-29T06:37:37.938Z,80.74
2023-04-29T06:40:40.811Z,80.65
2023-04-29T06:43:43.696Z,80.31
2023-04-29T06:46:47.786Z,80.07
2023-04-29T06:49:50.806Z,79.57
2023-04-29T06:52:54.091Z,79.52
2023-04-29T06:55:56.640Z,78.93
2023-04-29T06:58:59.161Z,78.61
2023-04-29T07:02:02.977Z,78.63
2023-04-29T07:05:06.294Z,78.14
2023-04-29T07:08:09.984Z,77.74
2023-04-29T07:11:12.892Z,76.89
2023-04-29T07:14:16.015Z,77.14
2023-04-29T07:17:20.648Z,76.35
2023-04-29T07:20:23.310Z,75.51
2023-04-29T07:23:26.169Z,75.57
2023-04-29T07:26:28.730Z,74.49
2023-04-29T07:29:31.294Z,74.13
2023-04-29T07:32:35.541Z,72.51
2023-04-29T07:35:38.155Z,72.10
2023-04-29T07:38:40.701Z,72.09
2023-04-29T07:41:43.284Z,72.10
2023-04-29T07:44:46.188Z,71.91
2023-04-29T07:47:50.144Z,71.46
2023-04-29T07:50:52.754Z,71.66
2023-04-29T07:53:55.302Z,70.88
2023-04-29T07:56:58.913Z,71.75
2023-04-29T08:00:01.487Z,71.40
2023-04-29T08:03:05.545Z,70.66
2023-04-29T08:06:08.324Z,70.05
2023-04-29T08:09:11.326Z,69.03
2023-04-29T08:12:13.905Z,69.01
2023-04-29T08:15:16.675Z,68.72
2023-04-29T08:18:21.177Z,69.26
2023-04-29T08:21:23.744Z,69.05
2023-04-29T08:24:26.552Z,68.24
2023-04-29T08:27:29.109Z,68.35
2023-04-29T08:30:31.666Z,66.82
2023-04-29T08:33:35.883Z,66.20
2023-04-29T08:36:38.624Z,65.60
2023-04-29T08:39:43.295Z,65.27
2023-04-29T08:42:47.437Z,65.54
2023-04-29T08:45:51.479Z,65.42
2023-04-29T08:48:56.388Z,65.04
2023-04-29T08:51:58.977Z,63.88
2023-04-29T08:55:02.493Z,63.67
2023-04-29T08:58:05.088Z,62.58
2023-04-29T09:01:09.164Z,62.35
2023-04-29T09:04:24.731Z,62.45
2023-04-29T09:07:27.298Z,61.58
2023-04-29T09:10:29.857Z,60.77
2023-04-29T09:13:32.934Z,61.26
2023-04-29T09:16:37.351Z,60.99
2023-04-29T09:19:41.298Z,60.57
2023-04-29T09:22:48.498Z,59.98
2023-04-29T09:25:56.281Z,59.77
2023-04-29T09:29:07.777Z,59.43
2023-04-29T09:32:20.255Z,58.95
2023-04-29T09:35:25.537Z,58.50
2023-04-29T09:38:28.176Z,58.19
2023-04-29T09:41:30.734Z,57.45
2023-04-29T09:44:35.788Z,57.05
2023-04-29T09:47:38.471Z,55.97
2023-04-29T09:50:43.637Z,55.85
2023-04-29T09:53:46.507Z,56.44
2023-04-29T09:56:49.924Z,54.02
2023-04-29T09:59:52.469Z,55.12
2023-04-29T10:02:55.372Z,55.67
2023-04-29T10:05:59.568Z,55.39
2023-04-29T10:09:02.123Z,55.29
2023-04-29T10:12:04.964Z,54.19
2023-04-29T10:15:10.862Z,52.52
2023-04-29T10:18:15.511Z,52.46
2023-04-29T10:21:19.429Z,52.79
2023-04-29T10:24:21.997Z,52.83
2023-04-29T10:27:25.393Z,53.17
2023-04-29T10:30:27.974Z,53.25
2023-04-29T10:33:32.238Z,52.76
2023-04-29T10:36:36.172Z,53.14
2023-04-29T10:39:43.600Z,51.33
2023-04-29T10:42:47.060Z,50.85
2023-04-29T10:45:49.608Z,51.26
2023-04-29T10:48:55.396Z,51.52
2023-04-29T10:52:04.339Z,51.39
2023-04-29T10:55:07.943Z,51.90
2023-04-29T10:58:45.723Z,50.88
2023-04-29T11:01:49.523Z,51.14
2023-04-29T11:05:12.184Z,49.92
2023-04-29T11:08:22.934Z,50.29
2023-04-29T11:11:27.119Z,50.80
2023-04-29T11:14:37.487Z,49.03
2023-04-29T11:17:40.510Z,50.28
2023-04-29T11:21:13.816Z,50.09
2023-04-29T11:24:17.871Z,48.57
2023-04-29T11:27:22.772Z,47.97
2023-04-29T11:30:25.703Z,48.66
2023-04-29T11:33:28.666Z,49.11
2023-04-29T11:36:32.738Z,48.84
2023-04-29T11:39:36.796Z,49.27
2023-04-29T11:42:42.335Z,48.86
2023-04-29T11:45:46.230Z,48.61
2023-04-29T11:48:48.889Z,48.57
2023-04-29T11:51:51.814Z,48.57
2023-04-29T11:54:55.826Z,48.19
2023-04-29T11:57:58.439Z,47.87
2023-04-29T12:01:00.953Z,47.50
2023-04-29T12:04:05.876Z,47.21
2023-04-29T12:07:10.894Z,46.81
2023-04-29T12:13:17.693Z,46.00
2023-04-29T12:16:20.464Z,46.01
2023-04-29T12:19:23.656Z,46.12
2023-04-29T12:22:32.204Z,45.58
2023-04-29T12:25:36.091Z,45.47
2023-04-29T12:28:38.812Z,45.27
2023-04-29T12:31:41.742Z,44.93
2023-04-29T12:34:45.638Z,45.06
2023-04-29T12:37:51.641Z,45.00
2023-04-29T12:40:55.845Z,44.43
2023-04-29T12:43:58.344Z,44.17
2023-04-29T12:47:08.944Z,44.03
2023-04-29T12:50:11.869Z,43.94
2023-04-29T12:53:14.360Z,43.27
2023-04-29T12:56:18.264Z,43.16
2023-04-29T12:59:21.196Z,43.01
2023-04-29T13:02:23.905Z,43.15
2023-04-29T13:05:26.488Z,42.74
2023-04-29T13:08:29.064Z,42.56
2023-04-29T13:11:34.872Z,42.25
2023-04-29T13:14:37.574Z,42.25
2023-04-29T13:17:40.243Z,42.02
2023-04-29T13:20:42.844Z,41.85
2023-04-29T13:23:46.268Z,42.05
2023-04-29T13:26:52.411Z,41.91
2023-04-29T13:29:56.155Z,41.85
2023-04-29T13:33:04.385Z,41.47
2023-04-29T13:36:14.105Z,41.57
2023-04-29T13:39:17.472Z,41.48
2023-04-29T13:42:25.493Z,41.02
2023-04-29T13:45:29.380Z,40.98
2023-04-29T13:49:08.179Z,40.85
2023-04-29T13:52:37.576Z,40.80
2023-04-29T13:56:01.609Z,40.67
2023-04-29T13:59:30.755Z,40.71
2023-04-29T14:05:10.643Z,40.77
2023-04-29T14:08:14.037Z,40.63
2023-04-29T14:11:16.924Z,40.99
2023-04-29T14:14:20.803Z,40.89
2023-04-29T14:17:23.381Z,40.66
2023-04-29T14:20:25.932Z,40.39
2023-04-29T14:23:28.507Z,40.38
2023-04-29T14:26:31.178Z,40.27
2023-04-29T14:29:35.159Z,40.09
2023-04-29T14:32:37.765Z,40.33
2023-04-29T14:35:41.017Z,39.99
2023-04-29T14:38:43.604Z,39.92
2023-04-29T14:41:46.727Z,39.97
2023-04-29T14:44:51.528Z,39.93
2023-04-29T14:47:54.230Z,39.98
2023-04-29T14:50:56.833Z,40.06
2023-04-29T14:53:59.379Z,40.36
2023-04-29T14:57:02.111Z,40.16
2023-04-29T15:00:08.237Z,40.19
2023-04-29T15:03:10.933Z,40.69
2023-04-29T15:06:13.969Z,40.56
2023-04-29T15:09:16.633Z,40.87
2023-04-29T15:12:21.024Z,40.93
2023-04-29T15:15:24.976Z,41.14
2023-04-29T15:18:27.506Z,41.43
2023-04-29T15:21:30.136Z,41.21
2023-04-29T15:24:32.694Z,41.14
2023-04-29T15:27:35.575Z,41.18
2023-04-29T15:30:39.508Z,41.42
2023-04-29T15:33:42.196Z,41.43
2023-04-29T15:36:44.766Z,41.30
2023-04-29T15:39:47.272Z,40.84
2023-04-29T15:42:49.798Z,40.71
2023-04-29T15:45:53.787Z,40.76
2023-04-29T15:48:56.420Z,40.80
2023-04-29T15:51:58.936Z,40.83
2023-04-29T15:55:01.435Z,40.62
2023-04-29T15:58:03.953Z,40.67
2023-04-29T16:01:07.918Z,40.25
2023-04-29T16:04:10.688Z,40.59
2023-04-29T16:07:13.336Z,40.31
2023-04-29T16:10:15.837Z,40.05
2023-04-29T16:13:18.377Z,39.84
2023-04-29T16:16:23.334Z,39.70
2023-04-29T16:19:25.955Z,39.71
2023-04-29T16:22:28.855Z,39.69
2023-04-29T16:25:31.425Z,39.44
2023-04-29T16:28:34.011Z,39.64
2023-04-29T16:31:38.170Z,40.13
2023-04-29T16:34:41.731Z,40.08
2023-04-29T16:37:44.293Z,40.42
2023-04-29T16:40:48.197Z,40.52
2023-04-29T16:43:52.039Z,41.22
2023-04-29T16:46:55.966Z,41.63
2023-04-29T16:49:58.486Z,41.10
2023-04-29T16:53:01.144Z,41.68
2023-04-29T16:56:03.796Z,42.04
2023-04-29T16:59:06.464Z,41.66
2023-04-29T17:02:10.309Z,41.09
2023-04-29T17:05:12.876Z,41.72
2023-04-29T17:08:15.460Z,41.67
2023-04-29T17:11:18.264Z,41.56
2023-04-29T17:14:20.784Z,41.58
2023-04-29T17:17:24.757Z,42.38
2023-04-29T17:20:27.348Z,42.28
2023-04-29T17:23:30.517Z,42.50
2023-04-29T17:26:33.292Z,42.43
2023-04-29T17:29:35.818Z,42.28
2023-04-29T17:32:39.875Z,42.19
2023-04-29T17:35:42.399Z,42.60
2023-04-29T17:38:44.964Z,42.85
2023-04-29T17:41:47.536Z,43.12
2023-04-29T17:44:50.127Z,43.41
2023-04-29T17:47:54.054Z,43.56
2023-04-29T17:50:56.607Z,43.47
2023-04-29T17:53:59.308Z,42.75
2023-04-29T17:57:03.211Z,42.51
2023-04-29T18:00:07.280Z,42.35
2023-04-29T18:03:11.236Z,42.38
2023-04-29T18:06:13.897Z,42.33
2023-04-29T18:09:17.774Z,42.01
2023-04-29T18:12:20.661Z,41.89
2023-04-29T18:15:23.228Z,41.67
2023-04-29T18:18:27.283Z,41.17
2023-04-29T18:21:30.179Z,40.75
2023-04-29T18:24:32.728Z,40.14
2023-04-29T18:27:35.317Z,40.60
2023-04-29T18:30:37.852Z,39.98
2023-04-29T18:33:41.963Z,40.33
2023-04-29T18:36:44.553Z,40.75
2023-04-29T18:39:47.128Z,40.75
2023-04-29T18:42:49.681Z,40.73
2023-04-29T18:45:52.460Z,40.90
2023-04-29T18:48:56.345Z,41.01
2023-04-29T18:52:01.093Z,40.81
2023-04-29T18:55:04.358Z,40.84
2023-04-29T18:58:06.887Z,40.68
2023-04-29T19:01:09.811Z,41.10
2023-04-29T19:04:14.019Z,40.87
2023-04-29T19:07:16.621Z,41.31
2023-04-29T19:10:19.254Z,40.94
2023-04-29T19:13:21.995Z,40.80
2023-04-29T19:16:24.888Z,40.64
2023-04-29T19:19:30.136Z,40.70
2023-04-29T19:22:32.664Z,40.99
2023-04-29T19:25:35.258Z,41.23
2023-04-29T19:28:38.071Z,40.95
2023-04-29T19:31:40.664Z,41.54
2023-04-29T19:34:44.568Z,43.07
2023-04-29T19:37:47.137Z,43.22
2023-04-29T19:40:49.866Z,44.24
2023-04-29T19:43:52.355Z,44.85
2023-04-29T19:46:55.289Z,44.89
2023-04-29T19:49:59.394Z,46.45
2023-04-29T19:53:01.918Z,47.04
2023-04-29T19:56:04.610Z,46.95
2023-04-29T19:59:07.169Z,48.12
2023-04-29T20:02:09.836Z,48.35
2023-04-29T20:05:13.803Z,49.23
2023-04-29T20:08:16.375Z,49.45
2023-04-29T20:11:18.988Z,49.67
2023-04-29T20:14:21.568Z,49.91
2023-04-29T20:17:24.287Z,50.41
2023-04-29T20:20:28.537Z,50.29
2023-04-29T20:23:31.758Z,51.23
2023-04-29T20:26:34.304Z,51.24
2023-04-29T20:29:36.867Z,51.96
2023-04-29T20:32:39.486Z,51.92
2023-04-29T20:35:43.419Z,53.00
2023-04-29T20:38:48.518Z,52.86
2023-04-29T20:41:51.554Z,53.37
2023-04-29T20:44:54.204Z,53.73
2023-04-29T20:47:56.768Z,54.20
2023-04-29T20:51:00.794Z,54.83
2023-04-29T20:54:03.424Z,53.89
2023-04-29T20:57:06.078Z,54.66
2023-04-29T21:00:09.818Z,54.71
2023-04-29T21:03:12.404Z,55.18
2023-04-29T21:06:17.069Z,54.83
2023-04-29T21:09:19.864Z,55.60
2023-04-29T21:12:22.441Z,55.22
2023-04-29T21:15:26.652Z,55.28
2023-04-29T21:18:29.256Z,55.54
2023-04-29T21:21:33.161Z,55.68
2023-04-29T21:24:35.749Z,55.87
2023-04-29T21:27:38.333Z,55.98
2023-04-29T21:30:40.944Z,56.44
2023-04-29T21:33:44.226Z,56.06
2023-04-29T21:36:48.187Z,56.28
2023-04-29T21:39:51.325Z,55.90
2023-04-29T21:42:55.149Z,56.66
2023-04-29T21:45:57.725Z,56.66
2023-04-29T21:49:00.490Z,57.03
2023-04-29T21:52:04.581Z,57.04
2023-04-29T21:55:07.612Z,57.32
2023-04-29T21:58:10.910Z,57.71
2023-04-29T22:01:27.217Z,57.68
2023-04-29T22:04:29.934Z,58.01
2023-04-29T22:07:33.808Z,58.25
2023-04-29T22:10:39.960Z,58.41
2023-04-29T22:13:45.051Z,58.37
2023-04-29T22:16:47.732Z,58.68
2023-04-29T22:19:50.376Z,59.32
2023-04-29T22:22:54.316Z,59.60
2023-04-29T22:25:56.876Z,59.79
2023-04-29T22:28:59.410Z,59.70
2023-04-29T22:32:02.076Z,60.13
2023-04-29T22:35:05.046Z,60.08
2023-04-29T22:38:09.517Z,60.10
2023-04-29T22:41:12.456Z,59.99
2023-04-29T22:44:15.333Z,60.54
2023-04-29T22:47:17.904Z,60.45
2023-04-29T22:50:20.604Z,60.53
2023-04-29T22:53:24.675Z,60.52
2023-04-29T22:56:28.674Z,60.48
2023-04-29T22:59:31.211Z,60.45
2023-04-29T23:02:33.759Z,61.05
2023-04-29T23:05:36.288Z,60.99
2023-04-29T23:08:40.189Z,60.96
2023-04-29T23:11:43.348Z,61.56
2023-04-29T23:14:45.854Z,61.32
2023-04-29T23:17:48.502Z,61.63
2023-04-29T23:20:51.376Z,62.19
2023-04-29T23:23:55.618Z,61.87
2023-04-29T23:26:58.164Z,62.08
2023-04-29T23:30:00.701Z,61.84
2023-04-29T23:33:03.263Z,62.21
2023-04-29T23:36:06.677Z,63.21
2023-04-29T23:39:10.530Z,62.95
2023-04-29T23:42:13.337Z,63.31
2023-04-29T23:45:15.993Z,63.20
2023-04-29T23:48:18.519Z,63.69
2023-04-29T23:51:21.048Z,63.56
2023-04-29T23:54:24.918Z,63.42
2023-04-29T23:57:27.448Z,63.99
